ADDS METAR Data INFO
IDs: Format: Raw Decoded Include TAF

Data at: 0309 UTC 17 Jan 2018

KCQX 170252Z AUTO 00000KT 10SM OVC090 M01/M02 A3047 RMK AO2 SLP318 T10061022 58008 TSNO
KCQX 170152Z AUTO 00000KT 10SM OVC090 M01/M02 A3048 RMK AO2 SLP323 T10061022 TSNO
KCQX 170052Z AUTO 00000KT 10SM BKN090 M02/M03 A3049 RMK AO2 SLP325 T10171033 TSNO
KCQX 162352Z AUTO 00000KT 10SM FEW090 M02/M04 A3049 RMK AO2 SLP326 T10171039 10028 21022 51005 TSNO
KCQX 162252Z AUTO 00000KT 10SM CLR M01/M04 A3048 RMK AO2 SLP323 T10111039 TSNO
KCQX 162152Z AUTO 22003KT 10SM CLR 00/M04 A3049 RMK AO2 SLP327 T00001044 TSNO
KCQX 162052Z AUTO 24003KT 10SM CLR 01/M04 A3048 RMK AO2 SLP322 T00111039 57002 TSNO
KCQX 161952Z AUTO VRB04KT 10SM CLR 02/M04 A3048 RMK AO2 SLP325 T00171039 TSNO
KCQX 161852Z AUTO VRB04KT 10SM CLR 02/M03 A3047 RMK AO2 SLP321 T00221028 TSNO
KCQX 161752Z AUTO 19005KT 10SM CLR 02/M03 A3048 RMK AO2 SLP324 T00221028 10028 21011 58018 TSNO
KCQX 161652Z AUTO 00000KT 10SM CLR 02/M03 A3050 RMK AO2 SLP329 T00221028 TSNO
KCQX 161623Z AUTO 00000KT 10SM SCT021 02/M03 A3051 RMK AO2 T00171033 TSNO
KCQX 161552Z AUTO 00000KT 10SM BKN022 02/M03 A3053 RMK AO2 SLP341 T00171028 TSNO
KCQX 161527Z AUTO 00000KT 10SM SCT021 02/M03 A3054 RMK AO2 T00171033 TSNO
KCQX 161502Z AUTO 00000KT 10SM BKN020 01/M04 A3053 RMK AO2 T00111039 TSNO
KCQX 161452Z AUTO 00000KT 10SM FEW015 SCT020 01/M04 A3053 RMK AO2 SLP341 T00061039 51007 TSNO
KCQX 161428Z AUTO 00000KT 10SM FEW014 SCT028 01/M03 A3053 RMK AO2 T00061028 TSNO
KCQX 161352Z AUTO 00000KT 10SM OVC029 00/M02 A3053 RMK AO2 SLP342 T00001022 TSNO
KCQX 161252Z AUTO 00000KT 10SM OVC025 M01/M03 A3052 RMK AO2 SLP337 T10111028 TSNO
KCQX 161225Z AUTO 00000KT 10SM OVC029 M01/M03 A3051 RMK AO2 T10111028 TSNO
KCQX 161152Z AUTO 00000KT 10SM OVC030 M01/M03 A3051 RMK AO2 SLP334 60000 70002 T10111028 11006 21011 53014 TSNO
KCQX 161052Z AUTO 00000KT 10SM OVC032 M01/M03 A3050 RMK AO2 SLP330 T10111028 TSNO
KCQX 160952Z AUTO 35004KT 10SM OVC033 M01/M03 A3048 RMK AO2 SLP324 T10111028 TSNO
KCQX 160907Z AUTO 34003KT 10SM BKN030 BKN038 M01/M03 A3047 RMK AO2 T10111028 TSNO
KCQX 160852Z AUTO VRB03KT 10SM BKN028 OVC038 M01/M02 A3047 RMK AO2 SLP320 60000 T10111022 53006 TSNO
KCQX 160807Z AUTO 35003KT 10SM OVC028 M01/M02 A3045 RMK AO2 T10061017 TSNO
KCQX 160752Z AUTO 35005KT 10SM BKN031 M01/M02 A3046 RMK AO2 SLP316 T10111022 TSNO
KCQX 160731Z AUTO VRB03KT 10SM OVC031 M01/M02 A3046 RMK AO2 T10061017 TSNO
KCQX 160652Z AUTO VRB05KT 10SM FEW019 BKN027 OVC032 M01/M02 A3046 RMK AO2 SNE01 SLP318 P0000 T10061017 TSNO
KCQX 160609Z AUTO 01004KT 10SM SCT010 SCT024 OVC029 M01/M01 A3045 RMK AO2 SNE01 P0000 T10061011 TSNO
KCQX 160552Z AUTO VRB05KT 3SM -SN BR BKN010 OVC027 M01/M01 A3045 RMK AO2 CIG 008V014 SLP314 P0000 60002 T10061011 10011 21011 55006 TSNO
KCQX 160534Z AUTO 36005KT 3SM -SN BR OVC011 M01/M01 A3046 RMK AO2 P0000 T10061011 TSNO
KCQX 160531Z AUTO VRB06KT 2SM -SN BR BKN009 OVC018 M01/M01 A3046 RMK AO2 P0000 T10061011 TSNO
KCQX 160521Z AUTO VRB05KT 4SM -SN BR BKN009 OVC018 M01/M01 A3044 RMK AO2 P0000 T10061011 TSNO
KCQX 160510Z AUTO VRB06G15KT 2SM -SN BR OVC009 M01/M01 A3044 RMK AO2 P0000 T10061011 TSNO
KCQX 160452Z AUTO 01008G15KT 4SM -SN BR BKN008 OVC013 M01/M01 A3043 RMK AO2 SLP308 P0000 T10061011 400221022 TSNO
KCQX 160449Z AUTO VRB06G15KT 3SM -SN BR BKN008 OVC012 M01/M01 A3044 RMK AO2 P0000 TSNO
KCQX 160405Z AUTO VRB06KT 1 1/4SM -SN BR OVC008 M01/M01 A3047 RMK AO2 P0000 T10111011 TSNO
KCQX 160352Z AUTO 35007G16KT 2 1/2SM -SN BR BKN008 OVC028 M01/M01 A3048 RMK AO2 SLP322 P0001 T10061011 TSNO
KCQX 160333Z AUTO 34008KT 2 1/2SM -SN BR BKN008 OVC028 M01/M01 A3048 RMK AO2 P0001 T10061011 TSNO
KCQX 160320Z AUTO 34009G14KT 300V020 4SM -SN BR BKN008 OVC012 00/M01 A3049 RMK AO2 P0001 T00001006 TSNO
KCQX 160305Z AUTO VRB04KT 2SM -SN BR OVC008 00/M01 A3048 RMK AO2 CIG 005V013 P0001 T00001006 TSNO
KCQX 160252Z AUTO VRB05KT 1 3/4SM -SN BR BKN006 OVC010 00/M01 A3047 RMK AO2 SLP320 P0000 60001 T00001006 51007 TSNO
KCQX 160227Z AUTO VRB06KT 1 3/4SM -SN BR BKN006 OVC010 00/00 A3046 RMK AO2 P0000 T00000000 TSNO
KCQX 160211Z AUTO VRB05KT 2SM -SN BR BKN009 OVC016 01/00 A3046 RMK AO2 P0000 T00060000 TSNO
KCQX 160152Z AUTO 35007KT 300V020 3SM -SN BR OVC009 01/00 A3046 RMK AO2 CIG 006V012 SLP318 P0000 T00060000 TSNO
KCQX 160139Z AUTO 4SM -SN BR BKN009 OVC016 01/00 A3046 RMK AO2 P0000 T00060000 TSNO
KCQX 160128Z AUTO 36007KT 330V040 3SM -SN BR BKN010 OVC016 01/00 A3046 RMK AO2 P0000 T00060000 TSNO
KCQX 160114Z AUTO 01006KT 6SM -SN BR BKN009 BKN014 OVC020 01/00 A3046 RMK AO2 P0000 T00110000 TSNO
KCQX 160107Z AUTO 02008KT 4SM -SN BR SCT009 BKN012 OVC026 01/00 A3046 RMK AO2 P0000 T00110000 TSNO
KCQX 160056Z AUTO VRB05KT 2 1/2SM -SN BR BKN008 BKN015 OVC032 01/00 A3046 RMK AO2 P0000 T00110000 TSNO
KCQX 160052Z AUTO 02005KT 3SM -SN BR SCT008 BKN014 OVC033 01/01 A3046 RMK AO2 SLP317 P0001 T00110006 TSNO
KCQX 160045Z AUTO VRB05KT 9SM -SN FEW008 BKN014 OVC033 01/01 A3046 RMK AO2 P0001 T00110006 TSNO
KCQX 160019Z AUTO VRB05KT 7SM -SN BKN008 OVC013 01/01 A3046 RMK AO2 P0000 T00060006 TSNO
KCQX 152352Z AUTO VRB06KT 2SM -SN BR BKN007 BKN015 OVC022 01/M01 A3045 RMK AO2 SNB03 SLP313 P0000 60000 T00061006 10017 20000 58012 TSNO
KCQX 152347Z AUTO VRB06KT 2 1/2SM -SN BR SCT007 BKN012 OVC022 01/M01 A3045 RMK AO2 SNB03 P0000 TSNO
KCQX 152338Z AUTO 01006KT 4SM -SN BR BKN014 OVC022 01/M01 A3046 RMK AO2 SNB03 P0000 T00061006 TSNO
KCQX 152252Z AUTO VRB06KT 10SM FEW011 OVC019 01/M01 A3047 RMK AO2 SLP320 T00061011 TSNO
KCQX 152152Z AUTO 03007G15KT 10SM OVC020 02/M02 A3048 RMK AO2 SLP322 T00171017 TSNO
KCQX 152052Z AUTO 02007G15KT 9SM SCT017 OVC024 01/M01 A3049 RMK AO2 SNB01E41 SLP325 P0000 60000 T00111011 56010 TSNO
KCQX 152014Z AUTO 03009G16KT 3SM -SN BR SCT017 BKN022 OVC027 01/M01 A3051 RMK AO2 SNB01 P0000 T00111011 TSNO
KCQX 152006Z AUTO 04010G20KT 1 3/4SM -SN BR BKN019 BKN027 OVC036 01/M02 A3051 RMK AO2 VIS 3/4V5 SNB01 P0000 T00061017 TSNO
KCQX 151952Z AUTO 04009G19KT 8SM SCT022 BKN027 OVC037 01/M02 A3050 RMK AO2 SNB15E41 SLP331 P0000 T00111022 TSNO
KCQX 151852Z AUTO 04011G17KT 10SM OVC024 02/M03 A3049 RMK AO2 SLP326 T00171033 TSNO
KCQX 151752Z AUTO 04010G19KT 360V060 10SM OVC026 02/M03 A3052 RMK AO2 SLP335 60000 T00171028 10022 21011 56038 TSNO
KCQX 151723Z AUTO 03008KT 10SM FEW016 BKN026 OVC034 02/M02 A3053 RMK AO2 T00171017 TSNO
KCQX 151652Z AUTO 02009KT 10SM OVC037 02/M02 A3054 RMK AO2 SLP343 T00221022 TSNO
KCQX 151639Z AUTO 04011G18KT 10SM SCT029 OVC037 02/M03 A3055 RMK AO2 T00221033 TSNO
KCQX 151623Z AUTO 03008G16KT 10SM BKN027 OVC033 02/M03 A3057 RMK AO2 PRESFR T00221033 TSNO
KCQX 151559Z AUTO 06012G18KT 10SM SCT027 OVC033 02/M04 A3059 RMK AO2 T00221039 TSNO
KCQX 151552Z AUTO 04011G18KT 10SM FEW021 BKN027 OVC034 02/M03 A3059 RMK AO2 UPE26SNB26E37 SLP362 P0000 T00221033 TSNO